sensor_id;sensor_type;location;lat;lon;timestamp;temperature;humidity
20827;DHT22;10574;52.508;13.236;2024-01-27T00:00:46;5.40;99.90
20827;DHT22;10574;52.508;13.236;2024-01-27T00:03:14;5.50;99.90
20827;DHT22;10574;52.508;13.236;2024-01-27T00:05:42;5.40;99.90
20827;DHT22;10574;52.508;13.236;2024-01-27T00:08:10;5.40;99.90
20827;DHT22;10574;52.508;13.236;2024-01-27T00:10:37;5.40;99.90
20827;DHT22;10574;52.508;13.236;2024-01-27T00:13:05;5.40;99.90
20827;DHT22;10574;52.508;13.236;2024-01-27T00:15:33;5.40;99.90
20827;DHT22;10574;52.508;13.236;2024-01-27T00:18:01;5.30;99.90
20827;DHT22;10574;52.508;13.236;2024-01-27T00:20:29;5.30;99.90
20827;DHT22;10574;52.508;13.236;2024-01-27T00:22:56;5.30;99.90
20827;DHT22;10574;52.508;13.236;2024-01-27T00:25:24;5.30;99.90
20827;DHT22;10574;52.508;13.236;2024-01-27T00:27:52;5.30;99.90
20827;DHT22;10574;52.508;13.236;2024-01-27T00:30:19;5.30;99.90
20827;DHT22;10574;52.508;13.236;2024-01-27T00:32:47;5.30;99.90
20827;DHT22;10574;52.508;13.236;2024-01-27T00:35:15;5.30;99.90
20827;DHT22;10574;52.508;13.236;2024-01-27T00:37:43;5.30;99.90
20827;DHT22;10574;52.508;13.236;2024-01-27T00:40:11;5.30;99.90
20827;DHT22;10574;52.508;13.236;2024-01-27T00:42:39;5.30;99.90
20827;DHT22;10574;52.508;13.236;2024-01-27T00:45:08;5.30;99.90
20827;DHT22;10574;52.508;13.236;2024-01-27T00:47:38;5.20;99.90
20827;DHT22;10574;52.508;13.236;2024-01-27T00:50:06;5.30;99.90
20827;DHT22;10574;52.508;13.236;2024-01-27T00:52:35;5.30;99.90
20827;DHT22;10574;52.508;13.236;2024-01-27T00:55:03;5.30;99.90
20827;DHT22;10574;52.508;13.236;2024-01-27T00:57:31;5.30;99.90
20827;DHT22;10574;52.508;13.236;2024-01-27T00:59:59;5.20;99.90
20827;DHT22;10574;52.508;13.236;2024-01-27T01:02:27;5.20;99.90
20827;DHT22;10574;52.508;13.236;2024-01-27T01:04:55;5.20;99.90
20827;DHT22;10574;52.508;13.236;2024-01-27T01:07:23;5.20;99.90
20827;DHT22;10574;52.508;13.236;2024-01-27T01:09:51;5.20;99.90
20827;DHT22;10574;52.508;13.236;2024-01-27T01:12:19;5.10;99.90
20827;DHT22;10574;52.508;13.236;2024-01-27T01:14:47;5.20;99.90
20827;DHT22;10574;52.508;13.236;2024-01-27T01:17:15;5.10;99.90
20827;DHT22;10574;52.508;13.236;2024-01-27T01:19:42;5.10;99.90
20827;DHT22;10574;52.508;13.236;2024-01-27T01:22:10;5.10;99.90
20827;DHT22;10574;52.508;13.236;2024-01-27T01:24:38;5.10;99.90
20827;DHT22;10574;52.508;13.236;2024-01-27T01:27:06;5.10;99.90
20827;DHT22;10574;52.508;13.236;2024-01-27T01:29:34;5.00;99.90
20827;DHT22;10574;52.508;13.236;2024-01-27T01:32:02;5.10;99.90
20827;DHT22;10574;52.508;13.236;2024-01-27T01:34:30;5.10;99.90
20827;DHT22;10574;52.508;13.236;2024-01-27T01:36:58;5.10;99.90
20827;DHT22;10574;52.508;13.236;2024-01-27T01:39:26;5.10;99.90
20827;DHT22;10574;52.508;13.236;2024-01-27T01:41:54;5.00;99.90
20827;DHT22;10574;52.508;13.236;2024-01-27T01:44:22;5.00;99.90
20827;DHT22;10574;52.508;13.236;2024-01-27T01:46:53;5.00;99.90
20827;DHT22;10574;52.508;13.236;2024-01-27T01:49:19;5.00;99.90
20827;DHT22;10574;52.508;13.236;2024-01-27T01:51:46;5.00;99.90
20827;DHT22;10574;52.508;13.236;2024-01-27T01:54:14;5.00;99.90
20827;DHT22;10574;52.508;13.236;2024-01-27T01:56:43;5.00;99.90
20827;DHT22;10574;52.508;13.236;2024-01-27T01:59:11;5.00;99.90
20827;DHT22;10574;52.508;13.236;2024-01-27T02:01:40;5.00;99.90
20827;DHT22;10574;52.508;13.236;2024-01-27T02:04:08;5.00;99.90
20827;DHT22;10574;52.508;13.236;2024-01-27T02:06:36;5.00;99.90
20827;DHT22;10574;52.508;13.236;2024-01-27T02:09:04;5.00;99.90
20827;DHT22;10574;52.508;13.236;2024-01-27T02:11:32;5.00;99.90
20827;DHT22;10574;52.508;13.236;2024-01-27T02:13:59;5.00;99.90
20827;DHT22;10574;52.508;13.236;2024-01-27T02:16:27;5.00;99.90
20827;DHT22;10574;52.508;13.236;2024-01-27T02:18:55;5.00;99.90
20827;DHT22;10574;52.508;13.236;2024-01-27T02:21:23;5.00;99.90
20827;DHT22;10574;52.508;13.236;2024-01-27T02:23:50;5.10;99.90
20827;DHT22;10574;52.508;13.236;2024-01-27T02:26:19;5.10;99.90
20827;DHT22;10574;52.508;13.236;2024-01-27T02:28:46;5.00;99.90
20827;DHT22;10574;52.508;13.236;2024-01-27T02:31:18;5.10;99.90
20827;DHT22;10574;52.508;13.236;2024-01-27T02:33:45;5.10;99.90
20827;DHT22;10574;52.508;13.236;2024-01-27T02:36:15;5.10;99.90
20827;DHT22;10574;52.508;13.236;2024-01-27T02:38:44;5.10;99.90
20827;DHT22;10574;52.508;13.236;2024-01-27T02:41:12;5.10;99.90
20827;DHT22;10574;52.508;13.236;2024-01-27T02:43:41;5.10;99.90
20827;DHT22;10574;52.508;13.236;2024-01-27T02:46:11;5.10;99.90
20827;DHT22;10574;52.508;13.236;2024-01-27T02:48:42;5.10;99.90
20827;DHT22;10574;52.508;13.236;2024-01-27T02:51:10;5.10;99.90
20827;DHT22;10574;52.508;13.236;2024-01-27T02:53:38;5.10;99.90
20827;DHT22;10574;52.508;13.236;2024-01-27T02:56:07;5.10;99.90
20827;DHT22;10574;52.508;13.236;2024-01-27T02:58:40;5.00;99.90
20827;DHT22;10574;52.508;13.236;2024-01-27T03:01:04;5.00;99.90
20827;DHT22;10574;52.508;13.236;2024-01-27T03:03:32;5.00;99.90
20827;DHT22;10574;52.508;13.236;2024-01-27T03:06:00;5.00;99.90
20827;DHT22;10574;52.508;13.236;2024-01-27T03:08:27;4.90;99.90
20827;DHT22;10574;52.508;13.236;2024-01-27T03:10:55;4.90;99.90
20827;DHT22;10574;52.508;13.236;2024-01-27T03:13:23;4.80;99.90
20827;DHT22;10574;52.508;13.236;2024-01-27T03:15:51;4.80;99.90
20827;DHT22;10574;52.508;13.236;2024-01-27T03:18:19;4.80;99.90
20827;DHT22;10574;52.508;13.236;2024-01-27T03:20:47;4.70;99.90
20827;DHT22;10574;52.508;13.236;2024-01-27T03:23:17;4.60;99.90
20827;DHT22;10574;52.508;13.236;2024-01-27T03:25:45;4.60;99.90
20827;DHT22;10574;52.508;13.236;2024-01-27T03:28:13;4.50;99.90
20827;DHT22;10574;52.508;13.236;2024-01-27T03:30:42;4.50;99.90
20827;DHT22;10574;52.508;13.236;2024-01-27T03:33:10;4.40;99.90
20827;DHT22;10574;52.508;13.236;2024-01-27T03:35:42;4.40;99.90
20827;DHT22;10574;52.508;13.236;2024-01-27T03:38:10;4.30;99.90
20827;DHT22;10574;52.508;13.236;2024-01-27T03:40:38;4.30;99.90
20827;DHT22;10574;52.508;13.236;2024-01-27T03:43:06;4.30;99.90
20827;DHT22;10574;52.508;13.236;2024-01-27T03:45:34;4.30;99.90
20827;DHT22;10574;52.508;13.236;2024-01-27T03:48:02;4.30;99.90
20827;DHT22;10574;52.508;13.236;2024-01-27T03:50:30;4.30;99.90
20827;DHT22;10574;52.508;13.236;2024-01-27T03:52:58;4.20;99.90
20827;DHT22;10574;52.508;13.236;2024-01-27T03:55:25;4.20;99.90
20827;DHT22;10574;52.508;13.236;2024-01-27T03:57:53;4.20;99.90
20827;DHT22;10574;52.508;13.236;2024-01-27T04:00:21;4.20;99.90
20827;DHT22;10574;52.508;13.236;2024-01-27T04:02:49;4.20;99.90
20827;DHT22;10574;52.508;13.236;2024-01-27T04:05:16;4.20;99.90
20827;DHT22;10574;52.508;13.236;2024-01-27T04:07:44;4.20;99.90
20827;DHT22;10574;52.508;13.236;2024-01-27T04:10:12;4.20;99.90
20827;DHT22;10574;52.508;13.236;2024-01-27T04:12:40;4.20;99.90
20827;DHT22;10574;52.508;13.236;2024-01-27T04:15:10;4.20;99.90
20827;DHT22;10574;52.508;13.236;2024-01-27T04:17:38;4.20;99.90
20827;DHT22;10574;52.508;13.236;2024-01-27T04:20:08;4.20;99.90
20827;DHT22;10574;52.508;13.236;2024-01-27T04:22:44;4.10;99.90
20827;DHT22;10574;52.508;13.236;2024-01-27T04:25:11;4.10;99.90
20827;DHT22;10574;52.508;13.236;2024-01-27T04:27:41;4.10;99.90
20827;DHT22;10574;52.508;13.236;2024-01-27T04:30:11;4.10;99.90
20827;DHT22;10574;52.508;13.236;2024-01-27T04:32:40;4.10;99.90
20827;DHT22;10574;52.508;13.236;2024-01-27T04:35:11;4.10;99.90
20827;DHT22;10574;52.508;13.236;2024-01-27T04:37:39;4.10;99.90
20827;DHT22;10574;52.508;13.236;2024-01-27T04:40:08;4.10;99.90
20827;DHT22;10574;52.508;13.236;2024-01-27T04:42:37;4.10;99.90
20827;DHT22;10574;52.508;13.236;2024-01-27T04:45:06;4.10;99.90
20827;DHT22;10574;52.508;13.236;2024-01-27T04:47:34;4.10;99.90
20827;DHT22;10574;52.508;13.236;2024-01-27T04:50:02;4.10;99.90
20827;DHT22;10574;52.508;13.236;2024-01-27T04:52:30;4.10;99.90
20827;DHT22;10574;52.508;13.236;2024-01-27T04:54:57;4.10;99.90
20827;DHT22;10574;52.508;13.236;2024-01-27T04:57:26;4.10;99.90
20827;DHT22;10574;52.508;13.236;2024-01-27T04:59:54;4.20;99.90
20827;DHT22;10574;52.508;13.236;2024-01-27T05:02:22;4.20;99.90
20827;DHT22;10574;52.508;13.236;2024-01-27T05:04:49;4.20;99.90
20827;DHT22;10574;52.508;13.236;2024-01-27T05:07:17;4.30;99.90
20827;DHT22;10574;52.508;13.236;2024-01-27T05:09:45;4.30;99.90
20827;DHT22;10574;52.508;13.236;2024-01-27T05:12:13;4.30;99.90
20827;DHT22;10574;52.508;13.236;2024-01-27T05:14:45;4.40;99.90
20827;DHT22;10574;52.508;13.236;2024-01-27T05:17:12;4.40;99.90
20827;DHT22;10574;52.508;13.236;2024-01-27T05:19:40;4.40;99.90
20827;DHT22;10574;52.508;13.236;2024-01-27T05:22:08;4.50;99.90
20827;DHT22;10574;52.508;13.236;2024-01-27T05:24:45;4.50;99.90
20827;DHT22;10574;52.508;13.236;2024-01-27T05:27:13;4.60;99.90
20827;DHT22;10574;52.508;13.236;2024-01-27T05:29:41;4.60;99.90
20827;DHT22;10574;52.508;13.236;2024-01-27T05:32:09;4.60;99.90
20827;DHT22;10574;52.508;13.236;2024-01-27T05:34:36;4.60;99.90
20827;DHT22;10574;52.508;13.236;2024-01-27T05:37:04;4.70;99.90
20827;DHT22;10574;52.508;13.236;2024-01-27T05:39:32;4.70;99.90
20827;DHT22;10574;52.508;13.236;2024-01-27T05:42:00;4.70;99.90
20827;DHT22;10574;52.508;13.236;2024-01-27T05:44:29;4.70;99.90
20827;DHT22;10574;52.508;13.236;2024-01-27T05:46:56;4.80;99.90
20827;DHT22;10574;52.508;13.236;2024-01-27T05:49:24;4.80;99.90
20827;DHT22;10574;52.508;13.236;2024-01-27T05:51:52;4.80;99.90
20827;DHT22;10574;52.508;13.236;2024-01-27T05:54:20;4.80;99.90
20827;DHT22;10574;52.508;13.236;2024-01-27T05:56:48;4.80;99.90
20827;DHT22;10574;52.508;13.236;2024-01-27T05:59:15;4.80;99.90
20827;DHT22;10574;52.508;13.236;2024-01-27T06:01:43;4.80;99.90
20827;DHT22;10574;52.508;13.236;2024-01-27T06:04:11;4.80;99.90
20827;DHT22;10574;52.508;13.236;2024-01-27T06:06:42;4.80;99.90
20827;DHT22;10574;52.508;13.236;2024-01-27T06:09:10;4.90;99.90
20827;DHT22;10574;52.508;13.236;2024-01-27T06:11:38;4.90;99.90
20827;DHT22;10574;52.508;13.236;2024-01-27T06:14:05;4.90;99.90
20827;DHT22;10574;52.508;13.236;2024-01-27T06:16:33;4.90;99.90
20827;DHT22;10574;52.508;13.236;2024-01-27T06:19:02;4.90;99.90
20827;DHT22;10574;52.508;13.236;2024-01-27T06:21:31;4.90;99.90
20827;DHT22;10574;52.508;13.236;2024-01-27T06:23:59;5.00;99.90
20827;DHT22;10574;52.508;13.236;2024-01-27T06:26:26;5.00;99.90
20827;DHT22;10574;52.508;13.236;2024-01-27T06:28:54;5.00;99.90
20827;DHT22;10574;52.508;13.236;2024-01-27T06:31:22;4.90;99.90
20827;DHT22;10574;52.508;13.236;2024-01-27T06:33:50;4.90;99.90
20827;DHT22;10574;52.508;13.236;2024-01-27T06:36:17;5.00;99.90
20827;DHT22;10574;52.508;13.236;2024-01-27T06:38:45;4.90;99.90
20827;DHT22;10574;52.508;13.236;2024-01-27T06:41:13;4.90;99.90
20827;DHT22;10574;52.508;13.236;2024-01-27T06:43:40;4.90;99.90
20827;DHT22;10574;52.508;13.236;2024-01-27T06:46:09;4.90;99.90
20827;DHT22;10574;52.508;13.236;2024-01-27T06:48:37;4.80;99.90
20827;DHT22;10574;52.508;13.236;2024-01-27T06:51:05;4.90;99.90
20827;DHT22;10574;52.508;13.236;2024-01-27T06:53:32;4.80;99.90
20827;DHT22;10574;52.508;13.236;2024-01-27T06:56:00;4.80;99.90
20827;DHT22;10574;52.508;13.236;2024-01-27T06:58:28;4.80;99.90
20827;DHT22;10574;52.508;13.236;2024-01-27T07:00:57;4.90;99.90
20827;DHT22;10574;52.508;13.236;2024-01-27T07:03:25;4.90;99.90
20827;DHT22;10574;52.508;13.236;2024-01-27T07:05:52;4.90;99.90
20827;DHT22;10574;52.508;13.236;2024-01-27T07:08:20;4.90;99.90
20827;DHT22;10574;52.508;13.236;2024-01-27T07:10:48;4.90;99.90
20827;DHT22;10574;52.508;13.236;2024-01-27T07:13:17;5.00;99.90
20827;DHT22;10574;52.508;13.236;2024-01-27T07:15:45;5.00;99.90
20827;DHT22;10574;52.508;13.236;2024-01-27T07:18:13;5.00;99.90
20827;DHT22;10574;52.508;13.236;2024-01-27T07:20:41;5.00;99.90
20827;DHT22;10574;52.508;13.236;2024-01-27T07:23:09;5.00;99.90
20827;DHT22;10574;52.508;13.236;2024-01-27T07:25:56;5.10;99.90
20827;DHT22;10574;52.508;13.236;2024-01-27T07:28:26;5.10;99.90
20827;DHT22;10574;52.508;13.236;2024-01-27T07:30:54;5.10;99.90
20827;DHT22;10574;52.508;13.236;2024-01-27T07:33:22;5.10;99.90
20827;DHT22;10574;52.508;13.236;2024-01-27T07:35:49;5.10;99.90
20827;DHT22;10574;52.508;13.236;2024-01-27T07:38:17;5.10;99.90
20827;DHT22;10574;52.508;13.236;2024-01-27T07:40:45;5.20;99.90
20827;DHT22;10574;52.508;13.236;2024-01-27T07:43:13;5.20;99.90
20827;DHT22;10574;52.508;13.236;2024-01-27T07:45:41;5.30;99.90
20827;DHT22;10574;52.508;13.236;2024-01-27T07:48:08;5.30;99.90
20827;DHT22;10574;52.508;13.236;2024-01-27T07:50:36;5.30;99.90
20827;DHT22;10574;52.508;13.236;2024-01-27T07:53:04;5.30;99.90
20827;DHT22;10574;52.508;13.236;2024-01-27T07:55:32;5.30;99.90
20827;DHT22;10574;52.508;13.236;2024-01-27T07:58:00;5.40;99.90
20827;DHT22;10574;52.508;13.236;2024-01-27T08:00:28;5.40;99.90
20827;DHT22;10574;52.508;13.236;2024-01-27T08:02:55;5.30;99.90
20827;DHT22;10574;52.508;13.236;2024-01-27T08:05:25;5.40;99.90
20827;DHT22;10574;52.508;13.236;2024-01-27T08:07:53;5.40;99.90
20827;DHT22;10574;52.508;13.236;2024-01-27T08:10:20;5.50;99.90
20827;DHT22;10574;52.508;13.236;2024-01-27T08:12:48;5.50;99.90
20827;DHT22;10574;52.508;13.236;2024-01-27T08:15:16;5.50;99.90
20827;DHT22;10574;52.508;13.236;2024-01-27T08:17:44;5.50;99.90
20827;DHT22;10574;52.508;13.236;2024-01-27T08:20:12;5.50;99.90
20827;DHT22;10574;52.508;13.236;2024-01-27T08:22:46;5.60;99.90
20827;DHT22;10574;52.508;13.236;2024-01-27T08:25:16;5.60;99.90
20827;DHT22;10574;52.508;13.236;2024-01-27T08:27:44;5.60;99.90
20827;DHT22;10574;52.508;13.236;2024-01-27T08:30:12;5.70;99.90
20827;DHT22;10574;52.508;13.236;2024-01-27T08:32:40;5.70;99.90
20827;DHT22;10574;52.508;13.236;2024-01-27T08:35:08;5.70;99.90
20827;DHT22;10574;52.508;13.236;2024-01-27T08:37:36;5.70;99.90
20827;DHT22;10574;52.508;13.236;2024-01-27T08:40:06;5.70;99.90
20827;DHT22;10574;52.508;13.236;2024-01-27T08:42:35;5.70;99.90
20827;DHT22;10574;52.508;13.236;2024-01-27T08:45:03;5.80;99.90
20827;DHT22;10574;52.508;13.236;2024-01-27T08:47:31;5.80;99.90
20827;DHT22;10574;52.508;13.236;2024-01-27T08:49:59;5.80;99.90
20827;DHT22;10574;52.508;13.236;2024-01-27T08:52:26;5.90;99.90
20827;DHT22;10574;52.508;13.236;2024-01-27T08:54:56;5.90;99.90
20827;DHT22;10574;52.508;13.236;2024-01-27T08:57:24;5.90;99.90
20827;DHT22;10574;52.508;13.236;2024-01-27T08:59:52;6.00;99.90
20827;DHT22;10574;52.508;13.236;2024-01-27T09:02:20;6.00;99.90
20827;DHT22;10574;52.508;13.236;2024-01-27T09:04:47;6.00;99.90
20827;DHT22;10574;52.508;13.236;2024-01-27T09:07:15;6.00;99.90
20827;DHT22;10574;52.508;13.236;2024-01-27T09:12:14;6.10;99.90
20827;DHT22;10574;52.508;13.236;2024-01-27T09:14:43;6.10;99.90
20827;DHT22;10574;52.508;13.236;2024-01-27T09:17:11;6.10;99.90
20827;DHT22;10574;52.508;13.236;2024-01-27T09:19:39;6.10;99.90
20827;DHT22;10574;52.508;13.236;2024-01-27T09:22:07;6.10;99.90
20827;DHT22;10574;52.508;13.236;2024-01-27T09:24:40;6.10;99.90
20827;DHT22;10574;52.508;13.236;2024-01-27T09:27:08;6.10;99.90
20827;DHT22;10574;52.508;13.236;2024-01-27T09:29:36;6.10;99.90
20827;DHT22;10574;52.508;13.236;2024-01-27T09:32:04;6.20;99.90
20827;DHT22;10574;52.508;13.236;2024-01-27T09:34:33;6.20;99.90
20827;DHT22;10574;52.508;13.236;2024-01-27T09:37:02;6.20;99.90
20827;DHT22;10574;52.508;13.236;2024-01-27T09:39:31;6.20;99.90
20827;DHT22;10574;52.508;13.236;2024-01-27T09:42:01;6.20;99.90
20827;DHT22;10574;52.508;13.236;2024-01-27T09:44:30;6.30;99.90
20827;DHT22;10574;52.508;13.236;2024-01-27T09:47:02;6.30;99.90
20827;DHT22;10574;52.508;13.236;2024-01-27T09:49:31;6.30;99.90
20827;DHT22;10574;52.508;13.236;2024-01-27T09:52:00;6.40;99.90
20827;DHT22;10574;52.508;13.236;2024-01-27T09:54:27;6.40;99.90
20827;DHT22;10574;52.508;13.236;2024-01-27T09:56:56;6.40;99.90
20827;DHT22;10574;52.508;13.236;2024-01-27T09:59:25;6.40;99.90
20827;DHT22;10574;52.508;13.236;2024-01-27T10:01:54;6.40;99.90
20827;DHT22;10574;52.508;13.236;2024-01-27T10:04:23;6.40;99.90
20827;DHT22;10574;52.508;13.236;2024-01-27T10:06:52;6.40;99.90
20827;DHT22;10574;52.508;13.236;2024-01-27T10:09:20;6.40;99.90
20827;DHT22;10574;52.508;13.236;2024-01-27T10:11:47;6.40;99.90
20827;DHT22;10574;52.508;13.236;2024-01-27T10:14:15;6.40;99.90
20827;DHT22;10574;52.508;13.236;2024-01-27T10:16:45;6.40;99.90
20827;DHT22;10574;52.508;13.236;2024-01-27T10:19:15;6.50;99.90
20827;DHT22;10574;52.508;13.236;2024-01-27T10:21:45;6.50;99.90
20827;DHT22;10574;52.508;13.236;2024-01-27T10:24:16;6.50;99.90
20827;DHT22;10574;52.508;13.236;2024-01-27T10:26:44;6.50;99.90
20827;DHT22;10574;52.508;13.236;2024-01-27T10:29:12;6.60;99.90
20827;DHT22;10574;52.508;13.236;2024-01-27T10:31:39;6.60;99.90
20827;DHT22;10574;52.508;13.236;2024-01-27T10:34:08;6.60;99.90
20827;DHT22;10574;52.508;13.236;2024-01-27T10:36:41;6.70;99.90
20827;DHT22;10574;52.508;13.236;2024-01-27T10:39:16;6.60;99.90
20827;DHT22;10574;52.508;13.236;2024-01-27T10:41:47;6.70;99.90
20827;DHT22;10574;52.508;13.236;2024-01-27T10:44:17;6.70;99.90
20827;DHT22;10574;52.508;13.236;2024-01-27T10:46:46;6.80;99.90
20827;DHT22;10574;52.508;13.236;2024-01-27T10:49:16;6.80;99.90
20827;DHT22;10574;52.508;13.236;2024-01-27T10:51:46;6.80;99.90
20827;DHT22;10574;52.508;13.236;2024-01-27T10:54:18;6.90;99.90
20827;DHT22;10574;52.508;13.236;2024-01-27T10:56:46;6.90;99.90
20827;DHT22;10574;52.508;13.236;2024-01-27T10:59:15;6.90;99.90
20827;DHT22;10574;52.508;13.236;2024-01-27T11:01:43;6.90;99.90
20827;DHT22;10574;52.508;13.236;2024-01-27T11:04:11;6.80;99.90
20827;DHT22;10574;52.508;13.236;2024-01-27T11:06:40;6.80;99.90
20827;DHT22;10574;52.508;13.236;2024-01-27T11:09:11;6.80;99.90
20827;DHT22;10574;52.508;13.236;2024-01-27T11:11:45;6.80;99.90
20827;DHT22;10574;52.508;13.236;2024-01-27T11:14:10;6.90;99.90
20827;DHT22;10574;52.508;13.236;2024-01-27T11:16:38;6.90;99.90
20827;DHT22;10574;52.508;13.236;2024-01-27T11:19:16;6.90;99.90
20827;DHT22;10574;52.508;13.236;2024-01-27T11:21:39;6.90;99.90
20827;DHT22;10574;52.508;13.236;2024-01-27T11:24:17;6.90;99.90
20827;DHT22;10574;52.508;13.236;2024-01-27T11:26:46;6.80;99.90
20827;DHT22;10574;52.508;13.236;2024-01-27T11:29:15;6.80;99.90
20827;DHT22;10574;52.508;13.236;2024-01-27T11:31:47;6.80;99.90
20827;DHT22;10574;52.508;13.236;2024-01-27T11:34:17;6.70;99.90
20827;DHT22;10574;52.508;13.236;2024-01-27T11:36:46;6.70;99.90
20827;DHT22;10574;52.508;13.236;2024-01-27T11:39:33;6.70;99.90
20827;DHT22;10574;52.508;13.236;2024-01-27T11:42:10;6.70;99.90
20827;DHT22;10574;52.508;13.236;2024-01-27T11:44:37;6.70;99.90
20827;DHT22;10574;52.508;13.236;2024-01-27T11:47:13;6.70;99.90
20827;DHT22;10574;52.508;13.236;2024-01-27T11:49:36;6.70;99.90
20827;DHT22;10574;52.508;13.236;2024-01-27T11:52:06;6.80;99.90
20827;DHT22;10574;52.508;13.236;2024-01-27T11:54:34;6.80;99.90
20827;DHT22;10574;52.508;13.236;2024-01-27T11:57:03;6.80;99.90
20827;DHT22;10574;52.508;13.236;2024-01-27T11:59:33;6.90;99.90
20827;DHT22;10574;52.508;13.236;2024-01-27T12:02:02;6.90;99.90
20827;DHT22;10574;52.508;13.236;2024-01-27T12:04:30;6.90;99.90
20827;DHT22;10574;52.508;13.236;2024-01-27T12:06:58;7.00;99.90
20827;DHT22;10574;52.508;13.236;2024-01-27T12:09:26;7.00;99.90
20827;DHT22;10574;52.508;13.236;2024-01-27T12:11:54;6.90;99.90
20827;DHT22;10574;52.508;13.236;2024-01-27T12:14:21;6.90;99.90
20827;DHT22;10574;52.508;13.236;2024-01-27T12:16:50;6.90;99.90
20827;DHT22;10574;52.508;13.236;2024-01-27T12:19:21;6.90;99.90
20827;DHT22;10574;52.508;13.236;2024-01-27T12:21:50;6.90;99.90
20827;DHT22;10574;52.508;13.236;2024-01-27T12:24:17;6.80;99.90
20827;DHT22;10574;52.508;13.236;2024-01-27T12:26:45;6.80;99.90
20827;DHT22;10574;52.508;13.236;2024-01-27T12:29:13;6.70;99.90
20827;DHT22;10574;52.508;13.236;2024-01-27T12:31:41;6.70;99.90
20827;DHT22;10574;52.508;13.236;2024-01-27T12:34:09;6.70;99.90
20827;DHT22;10574;52.508;13.236;2024-01-27T12:36:42;6.70;99.90
20827;DHT22;10574;52.508;13.236;2024-01-27T12:39:10;6.80;99.90
20827;DHT22;10574;52.508;13.236;2024-01-27T12:41:37;6.80;99.90
20827;DHT22;10574;52.508;13.236;2024-01-27T12:44:06;6.80;99.90
20827;DHT22;10574;52.508;13.236;2024-01-27T12:46:34;6.80;99.90
20827;DHT22;10574;52.508;13.236;2024-01-27T12:49:03;6.80;99.90
20827;DHT22;10574;52.508;13.236;2024-01-27T12:51:30;6.80;99.90
20827;DHT22;10574;52.508;13.236;2024-01-27T12:53:58;6.80;99.90
20827;DHT22;10574;52.508;13.236;2024-01-27T12:56:26;6.90;99.90
20827;DHT22;10574;52.508;13.236;2024-01-27T12:58:54;6.90;99.90
20827;DHT22;10574;52.508;13.236;2024-01-27T13:01:22;7.00;99.90
20827;DHT22;10574;52.508;13.236;2024-01-27T13:03:49;7.00;99.90
20827;DHT22;10574;52.508;13.236;2024-01-27T13:06:17;7.00;99.90
20827;DHT22;10574;52.508;13.236;2024-01-27T13:08:45;7.00;99.90
20827;DHT22;10574;52.508;13.236;2024-01-27T13:11:13;7.10;99.90
20827;DHT22;10574;52.508;13.236;2024-01-27T13:13:41;7.00;99.90
20827;DHT22;10574;52.508;13.236;2024-01-27T13:16:09;7.10;99.90
20827;DHT22;10574;52.508;13.236;2024-01-27T13:18:37;7.10;99.90
20827;DHT22;10574;52.508;13.236;2024-01-27T13:21:05;7.20;99.90
20827;DHT22;10574;52.508;13.236;2024-01-27T13:23:33;7.30;99.90
20827;DHT22;10574;52.508;13.236;2024-01-27T13:26:01;7.30;99.90
20827;DHT22;10574;52.508;13.236;2024-01-27T13:28:29;7.30;99.90
20827;DHT22;10574;52.508;13.236;2024-01-27T13:30:56;7.30;99.90
20827;DHT22;10574;52.508;13.236;2024-01-27T13:33:24;7.30;99.90
20827;DHT22;10574;52.508;13.236;2024-01-27T13:35:52;7.30;99.90
20827;DHT22;10574;52.508;13.236;2024-01-27T13:38:20;7.30;99.90
20827;DHT22;10574;52.508;13.236;2024-01-27T13:40:49;7.30;99.90
20827;DHT22;10574;52.508;13.236;2024-01-27T13:43:17;7.30;99.90
20827;DHT22;10574;52.508;13.236;2024-01-27T13:45:45;7.30;99.90
20827;DHT22;10574;52.508;13.236;2024-01-27T13:48:14;7.30;99.90
20827;DHT22;10574;52.508;13.236;2024-01-27T13:50:42;7.30;99.90
20827;DHT22;10574;52.508;13.236;2024-01-27T13:53:10;7.30;99.90
20827;DHT22;10574;52.508;13.236;2024-01-27T13:55:37;7.30;99.90
20827;DHT22;10574;52.508;13.236;2024-01-27T13:58:07;7.30;99.90
20827;DHT22;10574;52.508;13.236;2024-01-27T14:00:34;7.30;99.90
20827;DHT22;10574;52.508;13.236;2024-01-27T14:03:02;7.30;99.90
20827;DHT22;10574;52.508;13.236;2024-01-27T14:05:30;7.40;99.90
20827;DHT22;10574;52.508;13.236;2024-01-27T14:07:58;7.40;99.90
20827;DHT22;10574;52.508;13.236;2024-01-27T14:10:27;7.40;99.90
20827;DHT22;10574;52.508;13.236;2024-01-27T14:12:55;7.40;99.90
20827;DHT22;10574;52.508;13.236;2024-01-27T14:15:22;7.40;99.90
20827;DHT22;10574;52.508;13.236;2024-01-27T14:17:50;7.40;99.90
20827;DHT22;10574;52.508;13.236;2024-01-27T14:20:18;7.40;99.90
20827;DHT22;10574;52.508;13.236;2024-01-27T14:22:46;7.40;99.90
20827;DHT22;10574;52.508;13.236;2024-01-27T14:25:15;7.40;99.90
20827;DHT22;10574;52.508;13.236;2024-01-27T14:27:43;7.40;99.90
20827;DHT22;10574;52.508;13.236;2024-01-27T14:30:13;7.40;99.90
20827;DHT22;10574;52.508;13.236;2024-01-27T14:32:41;7.40;99.90
20827;DHT22;10574;52.508;13.236;2024-01-27T14:35:10;7.40;99.90
20827;DHT22;10574;52.508;13.236;2024-01-27T14:37:38;7.40;99.90
20827;DHT22;10574;52.508;13.236;2024-01-27T14:40:06;7.40;99.90
20827;DHT22;10574;52.508;13.236;2024-01-27T14:42:35;7.40;99.90
20827;DHT22;10574;52.508;13.236;2024-01-27T14:45:03;7.40;99.90
20827;DHT22;10574;52.508;13.236;2024-01-27T14:47:31;7.30;99.90
20827;DHT22;10574;52.508;13.236;2024-01-27T14:49:59;7.30;99.90
20827;DHT22;10574;52.508;13.236;2024-01-27T14:52:27;7.30;99.90
20827;DHT22;10574;52.508;13.236;2024-01-27T14:54:55;7.30;99.90
20827;DHT22;10574;52.508;13.236;2024-01-27T14:57:22;7.30;99.90
20827;DHT22;10574;52.508;13.236;2024-01-27T14:59:50;7.20;99.90
20827;DHT22;10574;52.508;13.236;2024-01-27T15:02:18;7.20;99.90
20827;DHT22;10574;52.508;13.236;2024-01-27T15:04:46;7.20;99.90
20827;DHT22;10574;52.508;13.236;2024-01-27T15:07:13;7.10;99.90
20827;DHT22;10574;52.508;13.236;2024-01-27T15:09:42;7.10;99.90
20827;DHT22;10574;52.508;13.236;2024-01-27T15:12:10;7.00;99.90
20827;DHT22;10574;52.508;13.236;2024-01-27T15:14:39;7.00;99.90
20827;DHT22;10574;52.508;13.236;2024-01-27T15:17:07;6.90;99.90
20827;DHT22;10574;52.508;13.236;2024-01-27T15:19:35;6.90;99.90
20827;DHT22;10574;52.508;13.236;2024-01-27T15:22:03;6.90;99.90
20827;DHT22;10574;52.508;13.236;2024-01-27T15:24:31;6.90;99.90
20827;DHT22;10574;52.508;13.236;2024-01-27T15:27:00;6.90;99.90
20827;DHT22;10574;52.508;13.236;2024-01-27T15:29:28;6.80;99.90
20827;DHT22;10574;52.508;13.236;2024-01-27T15:32:08;6.80;99.90
20827;DHT22;10574;52.508;13.236;2024-01-27T15:34:36;6.70;99.90
20827;DHT22;10574;52.508;13.236;2024-01-27T15:37:04;6.70;99.90
20827;DHT22;10574;52.508;13.236;2024-01-27T15:39:32;6.70;99.90